sensor_id;sensor_type;location;lat;lon;timestamp;pressure;altitude;pressure_sealevel;temperature;humidity
50867;BME280;36839;51.946;21.002;2022-11-11T00:01:22;101344.77;;;5.09;100.00
50867;BME280;36839;51.946;21.002;2022-11-11T00:03:53;101344.77;;;5.09;100.00
50867;BME280;36839;51.946;21.002;2022-11-11T00:06:21;101352.81;;;5.24;100.00
50867;BME280;36839;51.946;21.002;2022-11-11T00:08:49;101347.86;;;5.30;100.00
50867;BME280;36839;51.946;21.002;2022-11-11T00:11:20;101347.86;;;5.30;100.00
50867;BME280;36839;51.946;21.002;2022-11-11T00:13:49;101350.52;;;5.34;100.00
50867;BME280;36839;51.946;21.002;2022-11-11T00:16:19;101353.25;;;5.34;100.00
50867;BME280;36839;51.946;21.002;2022-11-11T00:18:50;101349.67;;;5.33;100.00
50867;BME280;36839;51.946;21.002;2022-11-11T00:21:25;101352.09;;;5.32;100.00
50867;BME280;36839;51.946;21.002;2022-11-11T00:23:57;101353.88;;;5.36;100.00
50867;BME280;36839;51.946;21.002;2022-11-11T00:26:43;101359.67;;;5.37;100.00
50867;BME280;36839;51.946;21.002;2022-11-11T00:29:15;101359.67;;;5.37;100.00
50867;BME280;36839;51.946;21.002;2022-11-11T00:31:42;101359.36;;;5.36;100.00
50867;BME280;36839;51.946;21.002;2022-11-11T00:34:31;101360.08;;;5.27;100.00
50867;BME280;36839;51.946;21.002;2022-11-11T00:36:57;101361.56;;;5.23;100.00
50867;BME280;36839;51.946;21.002;2022-11-11T00:39:27;101360.70;;;5.16;100.00
50867;BME280;36839;51.946;21.002;2022-11-11T00:41:53;101354.14;;;5.10;100.00
50867;BME280;36839;51.946;21.002;2022-11-11T00:44:24;101361.62;;;5.06;100.00
50867;BME280;36839;51.946;21.002;2022-11-11T00:46:50;101355.27;;;4.99;100.00
50867;BME280;36839;51.946;21.002;2022-11-11T00:49:36;101357.03;;;4.89;100.00
50867;BME280;36839;51.946;21.002;2022-11-11T00:52:20;101360.05;;;4.77;100.00
50867;BME280;36839;51.946;21.002;2022-11-11T00:54:48;101357.89;;;4.66;100.00
50867;BME280;36839;51.946;21.002;2022-11-11T00:57:18;101353.12;;;4.57;100.00
50867;BME280;36839;51.946;21.002;2022-11-11T00:59:44;101353.12;;;4.57;100.00
50867;BME280;36839;51.946;21.002;2022-11-11T01:02:14;101348.39;;;4.38;100.00
50867;BME280;36839;51.946;21.002;2022-11-11T01:04:40;101348.39;;;4.38;100.00
50867;BME280;36839;51.946;21.002;2022-11-11T01:07:08;101352.13;;;4.30;100.00
50867;BME280;36839;51.946;21.002;2022-11-11T01:09:37;101352.13;;;4.30;100.00
50867;BME280;36839;51.946;21.002;2022-11-11T01:12:07;101356.30;;;4.26;100.00
50867;BME280;36839;51.946;21.002;2022-11-11T01:14:35;101355.66;;;4.24;100.00
50867;BME280;36839;51.946;21.002;2022-11-11T01:17:04;101357.17;;;4.26;100.00
50867;BME280;36839;51.946;21.002;2022-11-11T01:19:32;101358.33;;;4.28;100.00
50867;BME280;36839;51.946;21.002;2022-11-11T01:22:00;101358.33;;;4.28;100.00
50867;BME280;36839;51.946;21.002;2022-11-11T01:24:27;101353.92;;;4.34;100.00
50867;BME280;36839;51.946;21.002;2022-11-11T01:26:55;101356.80;;;4.36;100.00
50867;BME280;36839;51.946;21.002;2022-11-11T01:29:25;101360.92;;;4.43;100.00
50867;BME280;36839;51.946;21.002;2022-11-11T01:31:56;101360.92;;;4.43;100.00
50867;BME280;36839;51.946;21.002;2022-11-11T01:34:24;101355.86;;;4.57;100.00
50867;BME280;36839;51.946;21.002;2022-11-11T01:36:53;101358.28;;;4.63;100.00
50867;BME280;36839;51.946;21.002;2022-11-11T01:39:21;101347.91;;;4.69;100.00
50867;BME280;36839;51.946;21.002;2022-11-11T01:41:49;101345.83;;;4.77;100.00
50867;BME280;36839;51.946;21.002;2022-11-11T01:44:44;101354.50;;;4.87;100.00
50867;BME280;36839;51.946;21.002;2022-11-11T01:47:07;101354.50;;;4.87;100.00
50867;BME280;36839;51.946;21.002;2022-11-11T01:52:11;101359.33;;;5.16;100.00
50867;BME280;36839;51.946;21.002;2022-11-11T02:00:12;101358.72;;;5.27;100.00
50867;BME280;36839;51.946;21.002;2022-11-11T02:02:53;101356.08;;;5.30;100.00
50867;BME280;36839;51.946;21.002;2022-11-11T02:05:22;101343.65;;;5.27;100.00
50867;BME280;36839;51.946;21.002;2022-11-11T02:08:29;101349.55;;;5.24;100.00
50867;BME280;36839;51.946;21.002;2022-11-11T02:11:13;101340.39;;;5.21;100.00
50867;BME280;36839;51.946;21.002;2022-11-11T02:13:43;101335.75;;;5.22;100.00
50867;BME280;36839;51.946;21.002;2022-11-11T02:16:28;101335.75;;;5.22;100.00
50867;BME280;36839;51.946;21.002;2022-11-11T02:18:55;101339.94;;;5.18;100.00
50867;BME280;36839;51.946;21.002;2022-11-11T02:21:41;101339.94;;;5.18;100.00
50867;BME280;36839;51.946;21.002;2022-11-11T02:24:05;101343.52;;;5.18;100.00
50867;BME280;36839;51.946;21.002;2022-11-11T02:26:35;101343.52;;;5.18;100.00
50867;BME280;36839;51.946;21.002;2022-11-11T02:29:06;101345.87;;;5.21;100.00
50867;BME280;36839;51.946;21.002;2022-11-11T02:31:32;101345.87;;;5.21;100.00
50867;BME280;36839;51.946;21.002;2022-11-11T02:34:00;101340.78;;;5.18;100.00
50867;BME280;36839;51.946;21.002;2022-11-11T02:36:30;101340.78;;;5.18;100.00
50867;BME280;36839;51.946;21.002;2022-11-11T02:38:59;101336.16;;;5.12;100.00
50867;BME280;36839;51.946;21.002;2022-11-11T02:41:27;101343.08;;;5.08;100.00
50867;BME280;36839;51.946;21.002;2022-11-11T02:44:14;101343.08;;;5.08;100.00
50867;BME280;36839;51.946;21.002;2022-11-11T02:46:42;101341.58;;;4.99;100.00
50867;BME280;36839;51.946;21.002;2022-11-11T02:49:08;101344.21;;;4.96;100.00
50867;BME280;36839;51.946;21.002;2022-11-11T02:51:38;101349.23;;;4.93;100.00
50867;BME280;36839;51.946;21.002;2022-11-11T02:54:04;101355.45;;;4.91;100.00
50867;BME280;36839;51.946;21.002;2022-11-11T02:56:34;101355.45;;;4.91;100.00
50867;BME280;36839;51.946;21.002;2022-11-11T02:59:19;101352.92;;;4.89;100.00
50867;BME280;36839;51.946;21.002;2022-11-11T03:01:47;101358.36;;;4.82;100.00
50867;BME280;36839;51.946;21.002;2022-11-11T03:04:16;101358.36;;;4.82;100.00
50867;BME280;36839;51.946;21.002;2022-11-11T03:06:42;101356.99;;;4.82;100.00
50867;BME280;36839;51.946;21.002;2022-11-11T03:09:10;101360.05;;;4.77;100.00
50867;BME280;36839;51.946;21.002;2022-11-11T03:11:36;101366.11;;;4.72;100.00
50867;BME280;36839;51.946;21.002;2022-11-11T03:14:04;101375.52;;;4.74;100.00
50867;BME280;36839;51.946;21.002;2022-11-11T03:16:34;101372.25;;;4.74;100.00
50867;BME280;36839;51.946;21.002;2022-11-11T03:19:19;101372.25;;;4.74;100.00
50867;BME280;36839;51.946;21.002;2022-11-11T03:21:51;101374.00;;;4.71;100.00
50867;BME280;36839;51.946;21.002;2022-11-11T03:24:19;101379.48;;;4.71;100.00
50867;BME280;36839;51.946;21.002;2022-11-11T03:26:45;101378.00;;;4.69;100.00
50867;BME280;36839;51.946;21.002;2022-11-11T03:29:12;101374.38;;;4.62;100.00
50867;BME280;36839;51.946;21.002;2022-11-11T03:31:40;101374.38;;;4.62;100.00
50867;BME280;36839;51.946;21.002;2022-11-11T03:34:08;101380.80;;;4.58;100.00
50867;BME280;36839;51.946;21.002;2022-11-11T03:36:45;101380.80;;;4.58;100.00
50867;BME280;36839;51.946;21.002;2022-11-11T03:39:30;101379.64;;;4.56;100.00
50867;BME280;36839;51.946;21.002;2022-11-11T03:41:58;101378.91;;;4.58;100.00
50867;BME280;36839;51.946;21.002;2022-11-11T03:44:28;101370.17;;;4.59;100.00
50867;BME280;36839;51.946;21.002;2022-11-11T03:46:57;101375.33;;;4.58;100.00
50867;BME280;36839;51.946;21.002;2022-11-11T03:49:23;101373.11;;;4.57;100.00
50867;BME280;36839;51.946;21.002;2022-11-11T03:51:51;101370.70;;;4.58;100.00
50867;BME280;36839;51.946;21.002;2022-11-11T03:54:18;101370.70;;;4.58;100.00
50867;BME280;36839;51.946;21.002;2022-11-11T03:56:48;101368.11;;;4.68;100.00
50867;BME280;36839;51.946;21.002;2022-11-11T03:59:16;101372.95;;;4.72;100.00
50867;BME280;36839;51.946;21.002;2022-11-11T04:01:46;101372.95;;;4.72;100.00
50867;BME280;36839;51.946;21.002;2022-11-11T04:04:32;101381.41;;;4.77;100.00
50867;BME280;36839;51.946;21.002;2022-11-11T04:07:17;101379.45;;;4.88;100.00
50867;BME280;36839;51.946;21.002;2022-11-11T04:10:01;101379.35;;;4.93;100.00
50867;BME280;36839;51.946;21.002;2022-11-11T04:12:49;101392.86;;;4.94;100.00
50867;BME280;36839;51.946;21.002;2022-11-11T04:15:36;101388.02;;;4.96;100.00
50867;BME280;36839;51.946;21.002;2022-11-11T04:18:22;101388.02;;;4.96;100.00
50867;BME280;36839;51.946;21.002;2022-11-11T04:20:50;101397.39;;;4.98;100.00
50867;BME280;36839;51.946;21.002;2022-11-11T04:23:35;101396.58;;;5.04;100.00
50867;BME280;36839;51.946;21.002;2022-11-11T04:26:07;101395.42;;;5.09;100.00
50867;BME280;36839;51.946;21.002;2022-11-11T04:28:35;101401.88;;;5.12;100.00
50867;BME280;36839;51.946;21.002;2022-11-11T04:31:05;101401.88;;;5.12;100.00
50867;BME280;36839;51.946;21.002;2022-11-11T04:33:33;101407.36;;;5.19;100.00
50867;BME280;36839;51.946;21.002;2022-11-11T04:36:05;101411.60;;;5.21;100.00
50867;BME280;36839;51.946;21.002;2022-11-11T04:38:31;101412.02;;;5.25;100.00
50867;BME280;36839;51.946;21.002;2022-11-11T04:41:03;101412.02;;;5.25;100.00
50867;BME280;36839;51.946;21.002;2022-11-11T04:43:31;101415.11;;;5.32;100.00
50867;BME280;36839;51.946;21.002;2022-11-11T04:46:05;101423.22;;;5.36;100.00
50867;BME280;36839;51.946;21.002;2022-11-11T04:48:32;101423.22;;;5.36;100.00
50867;BME280;36839;51.946;21.002;2022-11-11T04:51:01;101426.19;;;5.48;100.00
50867;BME280;36839;51.946;21.002;2022-11-11T04:53:29;101426.19;;;5.48;100.00
50867;BME280;36839;51.946;21.002;2022-11-11T04:55:58;101416.19;;;5.58;100.00
50867;BME280;36839;51.946;21.002;2022-11-11T04:58:43;101421.38;;;5.63;100.00
50867;BME280;36839;51.946;21.002;2022-11-11T05:01:09;101409.14;;;5.66;100.00
50867;BME280;36839;51.946;21.002;2022-11-11T05:03:35;101404.95;;;5.70;100.00
50867;BME280;36839;51.946;21.002;2022-11-11T05:06:03;101419.70;;;5.76;100.00
50867;BME280;36839;51.946;21.002;2022-11-11T05:08:50;101419.70;;;5.76;100.00
50867;BME280;36839;51.946;21.002;2022-11-11T05:11:26;101419.50;;;5.84;100.00
50867;BME280;36839;51.946;21.002;2022-11-11T05:14:01;101419.50;;;5.84;100.00
50867;BME280;36839;51.946;21.002;2022-11-11T05:16:51;101419.42;;;5.88;100.00
50867;BME280;36839;51.946;21.002;2022-11-11T05:19:38;101427.03;;;5.92;100.00
50867;BME280;36839;51.946;21.002;2022-11-11T05:22:25;101422.30;;;5.97;100.00
50867;BME280;36839;51.946;21.002;2022-11-11T05:24:52;101429.87;;;6.01;100.00
50867;BME280;36839;51.946;21.002;2022-11-11T05:27:39;101435.77;;;6.05;100.00
50867;BME280;36839;51.946;21.002;2022-11-11T05:30:08;101430.73;;;6.09;100.00
50867;BME280;36839;51.946;21.002;2022-11-11T05:32:38;101424.72;;;6.09;100.00
50867;BME280;36839;51.946;21.002;2022-11-11T05:35:09;101421.54;;;6.12;100.00
50867;BME280;36839;51.946;21.002;2022-11-11T05:37:37;101421.54;;;6.12;100.00
50867;BME280;36839;51.946;21.002;2022-11-11T05:40:05;101419.73;;;6.15;100.00
50867;BME280;36839;51.946;21.002;2022-11-11T05:42:32;101405.40;;;6.20;100.00
50867;BME280;36839;51.946;21.002;2022-11-11T05:44:58;101416.69;;;6.21;100.00
50867;BME280;36839;51.946;21.002;2022-11-11T05:47:26;101419.20;;;6.22;100.00
50867;BME280;36839;51.946;21.002;2022-11-11T05:49:55;101413.50;;;6.24;100.00
50867;BME280;36839;51.946;21.002;2022-11-11T05:52:23;101405.40;;;6.26;100.00
50867;BME280;36839;51.946;21.002;2022-11-11T05:54:49;101412.05;;;6.28;100.00
50867;BME280;36839;51.946;21.002;2022-11-11T05:57:21;101412.05;;;6.28;100.00
50867;BME280;36839;51.946;21.002;2022-11-11T05:59:47;101411.70;;;6.34;100.00
50867;BME280;36839;51.946;21.002;2022-11-11T06:02:14;101408.77;;;6.35;100.00
50867;BME280;36839;51.946;21.002;2022-11-11T06:04:41;101407.48;;;6.38;100.00
50867;BME280;36839;51.946;21.002;2022-11-11T06:07:15;101418.03;;;6.41;100.00
50867;BME280;36839;51.946;21.002;2022-11-11T06:09:41;101421.70;;;6.44;100.00
50867;BME280;36839;51.946;21.002;2022-11-11T06:12:09;101422.36;;;6.46;100.00
50867;BME280;36839;51.946;21.002;2022-11-11T06:14:37;101422.36;;;6.46;100.00
50867;BME280;36839;51.946;21.002;2022-11-11T06:17:05;101422.02;;;6.51;100.00
50867;BME280;36839;51.946;21.002;2022-11-11T06:19:34;101409.97;;;6.52;100.00
50867;BME280;36839;51.946;21.002;2022-11-11T06:22:04;101416.65;;;6.54;100.00
50867;BME280;36839;51.946;21.002;2022-11-11T06:24:37;101413.78;;;6.58;100.00
50867;BME280;36839;51.946;21.002;2022-11-11T06:27:06;101413.78;;;6.58;100.00
50867;BME280;36839;51.946;21.002;2022-11-11T06:29:34;101416.30;;;6.59;100.00
50867;BME280;36839;51.946;21.002;2022-11-11T06:32:05;101413.11;;;6.63;100.00
50867;BME280;36839;51.946;21.002;2022-11-11T06:34:31;101411.55;;;6.64;100.00
50867;BME280;36839;51.946;21.002;2022-11-11T06:37:01;101417.23;;;6.63;100.00
50867;BME280;36839;51.946;21.002;2022-11-11T06:39:27;101417.36;;;6.65;100.00
50867;BME280;36839;51.946;21.002;2022-11-11T06:41:57;101415.02;;;6.62;100.00
50867;BME280;36839;51.946;21.002;2022-11-11T06:44:25;101435.69;;;6.71;100.00
50867;BME280;36839;51.946;21.002;2022-11-11T06:46:56;101420.71;;;6.74;100.00
50867;BME280;36839;51.946;21.002;2022-11-11T06:49:25;101420.71;;;6.74;100.00
50867;BME280;36839;51.946;21.002;2022-11-11T06:51:56;101416.67;;;6.83;100.00
50867;BME280;36839;51.946;21.002;2022-11-11T06:54:22;101412.11;;;6.86;100.00
50867;BME280;36839;51.946;21.002;2022-11-11T06:56:48;101412.11;;;6.86;100.00
50867;BME280;36839;51.946;21.002;2022-11-11T06:59:18;101410.59;;;6.90;100.00
50867;BME280;36839;51.946;21.002;2022-11-11T07:01:49;101419.89;;;6.96;100.00
50867;BME280;36839;51.946;21.002;2022-11-11T07:04:16;101419.89;;;6.96;100.00
50867;BME280;36839;51.946;21.002;2022-11-11T07:06:44;101425.25;;;7.00;100.00
50867;BME280;36839;51.946;21.002;2022-11-11T07:09:11;101426.20;;;7.03;100.00
50867;BME280;36839;51.946;21.002;2022-11-11T07:11:41;101426.20;;;7.03;100.00
50867;BME280;36839;51.946;21.002;2022-11-11T07:14:10;101418.81;;;7.03;100.00
50867;BME280;36839;51.946;21.002;2022-11-11T07:16:36;101425.84;;;7.08;100.00
50867;BME280;36839;51.946;21.002;2022-11-11T07:19:02;101429.75;;;7.10;100.00
50867;BME280;36839;51.946;21.002;2022-11-11T07:21:30;101435.05;;;7.11;100.00
50867;BME280;36839;51.946;21.002;2022-11-11T07:24:00;101429.64;;;7.14;100.00
50867;BME280;36839;51.946;21.002;2022-11-11T07:26:33;101429.64;;;7.14;100.00
50867;BME280;36839;51.946;21.002;2022-11-11T07:29:02;101423.47;;;7.19;100.00
50867;BME280;36839;51.946;21.002;2022-11-11T07:31:31;101423.47;;;7.19;100.00
50867;BME280;36839;51.946;21.002;2022-11-11T07:34:01;101410.78;;;7.24;100.00
50867;BME280;36839;51.946;21.002;2022-11-11T07:36:27;101408.53;;;7.30;100.00
50867;BME280;36839;51.946;21.002;2022-11-11T07:38:56;101402.28;;;7.32;100.00
50867;BME280;36839;51.946;21.002;2022-11-11T07:41:26;101404.78;;;7.40;100.00
50867;BME280;36839;51.946;21.002;2022-11-11T07:43:55;101409.82;;;7.43;100.00
50867;BME280;36839;51.946;21.002;2022-11-11T07:46:22;101409.82;;;7.43;100.00
50867;BME280;36839;51.946;21.002;2022-11-11T07:48:49;101411.70;;;7.50;100.00
50867;BME280;36839;51.946;21.002;2022-11-11T07:51:19;101398.70;;;7.63;100.00
50867;BME280;36839;51.946;21.002;2022-11-11T07:53:45;101395.38;;;7.70;100.00
50867;BME280;36839;51.946;21.002;2022-11-11T07:56:12;101395.38;;;7.70;100.00
50867;BME280;36839;51.946;21.002;2022-11-11T07:58:40;101396.63;;;7.84;100.00
50867;BME280;36839;51.946;21.002;2022-11-11T08:01:06;101396.63;;;7.84;100.00
50867;BME280;36839;51.946;21.002;2022-11-11T08:03:34;101393.96;;;7.86;100.00
50867;BME280;36839;51.946;21.002;2022-11-11T08:06:04;101392.77;;;7.91;100.00
50867;BME280;36839;51.946;21.002;2022-11-11T08:08:33;101392.77;;;7.91;100.00
50867;BME280;36839;51.946;21.002;2022-11-11T08:11:00;101397.00;;;8.03;100.00
50867;BME280;36839;51.946;21.002;2022-11-11T08:13:28;101391.07;;;8.06;100.00
50867;BME280;36839;51.946;21.002;2022-11-11T08:16:10;101391.07;;;8.06;100.00
50867;BME280;36839;51.946;21.002;2022-11-11T08:18:36;101402.00;;;8.13;100.00
50867;BME280;36839;51.946;21.002;2022-11-11T08:21:06;101411.27;;;8.18;100.00
50867;BME280;36839;51.946;21.002;2022-11-11T08:23:34;101428.02;;;8.17;100.00
50867;BME280;36839;51.946;21.002;2022-11-11T08:26:03;101428.02;;;8.17;100.00
50867;BME280;36839;51.946;21.002;2022-11-11T08:28:32;101426.64;;;8.17;100.00
50867;BME280;36839;51.946;21.002;2022-11-11T08:31:01;101431.91;;;8.18;100.00
50867;BME280;36839;51.946;21.002;2022-11-11T08:33:30;101432.14;;;8.17;100.00
50867;BME280;36839;51.946;21.002;2022-11-11T08:35:59;101437.72;;;8.19;100.00
50867;BME280;36839;51.946;21.002;2022-11-11T08:38:27;101430.69;;;8.23;100.00
50867;BME280;36839;51.946;21.002;2022-11-11T08:41:00;101429.49;;;8.28;100.00
50867;BME280;36839;51.946;21.002;2022-11-11T08:43:30;101429.49;;;8.28;100.00
50867;BME280;36839;51.946;21.002;2022-11-11T08:46:02;101434.05;;;8.41;100.00
50867;BME280;36839;51.946;21.002;2022-11-11T08:48:34;101447.23;;;8.48;100.00
50867;BME280;36839;51.946;21.002;2022-11-11T08:51:04;101442.51;;;8.55;100.00
50867;BME280;36839;51.946;21.002;2022-11-11T08:53:34;101439.66;;;8.62;100.00
50867;BME280;36839;51.946;21.002;2022-11-11T08:56:04;101439.66;;;8.62;100.00
50867;BME280;36839;51.946;21.002;2022-11-11T08:58:34;101432.19;;;8.78;100.00
50867;BME280;36839;51.946;21.002;2022-11-11T09:01:15;101430.37;;;8.81;100.00
50867;BME280;36839;51.946;21.002;2022-11-11T09:03:41;101430.37;;;8.81;100.00
50867;BME280;36839;51.946;21.002;2022-11-11T09:06:10;101431.05;;;8.86;100.00
50867;BME280;36839;51.946;21.002;2022-11-11T09:08:41;101430.88;;;8.90;100.00
50867;BME280;36839;51.946;21.002;2022-11-11T09:11:09;101435.66;;;8.92;100.00
50867;BME280;36839;51.946;21.002;2022-11-11T09:13:37;101436.86;;;8.96;100.00
50867;BME280;36839;51.946;21.002;2022-11-11T09:16:06;101436.86;;;8.96;100.00
50867;BME280;36839;51.946;21.002;2022-11-11T09:18:33;101440.92;;;9.12;100.00
50867;BME280;36839;51.946;21.002;2022-11-11T09:21:02;101441.05;;;9.17;100.00
50867;BME280;36839;51.946;21.002;2022-11-11T09:23:30;101431.88;;;9.23;100.00
50867;BME280;36839;51.946;21.002;2022-11-11T09:26:02;101434.92;;;9.24;100.00
50867;BME280;36839;51.946;21.002;2022-11-11T09:28:32;101434.14;;;9.35;100.00
50867;BME280;36839;51.946;21.002;2022-11-11T09:31:00;101441.63;;;9.37;100.00
50867;BME280;36839;51.946;21.002;2022-11-11T09:33:27;101429.46;;;9.36;100.00
50867;BME280;36839;51.946;21.002;2022-11-11T09:35:56;101429.46;;;9.36;100.00
50867;BME280;36839;51.946;21.002;2022-11-11T09:38:30;101418.20;;;9.37;100.00
50867;BME280;36839;51.946;21.002;2022-11-11T09:41:10;101418.20;;;9.37;100.00
50867;BME280;36839;51.946;21.002;2022-11-11T09:43:51;101413.44;;;9.44;100.00
50867;BME280;36839;51.946;21.002;2022-11-11T09:51:31;101417.55;;;9.54;100.00
50867;BME280;36839;51.946;21.002;2022-11-11T09:54:04;101417.55;;;9.54;100.00
50867;BME280;36839;51.946;21.002;2022-11-11T09:56:32;101408.80;;;9.57;100.00
50867;BME280;36839;51.946;21.002;2022-11-11T10:01:49;101401.99;;;9.59;100.00
50867;BME280;36839;51.946;21.002;2022-11-11T10:04:27;101411.47;;;9.63;100.00
50867;BME280;36839;51.946;21.002;2022-11-11T10:06:59;101410.15;;;9.66;100.00
50867;BME280;36839;51.946;21.002;2022-11-11T10:09:40;101410.15;;;9.66;100.00
50867;BME280;36839;51.946;21.002;2022-11-11T10:12:14;101399.66;;;9.65;100.00
50867;BME280;36839;51.946;21.002;2022-11-11T10:14:46;101397.97;;;9.64;100.00
50867;BME280;36839;51.946;21.002;2022-11-11T10:17:37;101397.97;;;9.64;100.00
50867;BME280;36839;51.946;21.002;2022-11-11T10:20:22;101387.75;;;9.74;100.00
50867;BME280;36839;51.946;21.002;2022-11-11T10:22:58;101393.74;;;9.71;100.00
50867;BME280;36839;51.946;21.002;2022-11-11T10:25:26;101393.74;;;9.71;100.00
50867;BME280;36839;51.946;21.002;2022-11-11T10:27:56;101394.09;;;9.74;100.00
50867;BME280;36839;51.946;21.002;2022-11-11T10:30:25;101396.86;;;9.74;100.00
50867;BME280;36839;51.946;21.002;2022-11-11T10:33:02;101396.86;;;9.74;100.00
50867;BME280;36839;51.946;21.002;2022-11-11T10:35:34;101392.52;;;9.76;100.00
50867;BME280;36839;51.946;21.002;2022-11-11T10:40:46;101388.97;;;9.78;100.00
50867;BME280;36839;51.946;21.002;2022-11-11T10:43:26;101378.83;;;9.81;100.00
50867;BME280;36839;51.946;21.002;2022-11-11T10:46:01;101367.55;;;9.83;100.00
50867;BME280;36839;51.946;21.002;2022-11-11T10:51:05;101354.89;;;9.84;100.00
50867;BME280;36839;51.946;21.002;2022-11-11T10:53:40;101358.28;;;9.86;100.00
50867;BME280;36839;51.946;21.002;2022-11-11T10:56:39;101370.75;;;9.89;100.00
50867;BME280;36839;51.946;21.002;2022-11-11T10:59:18;101370.75;;;9.89;100.00
50867;BME280;36839;51.946;21.002;2022-11-11T11:04:22;101383.31;;;10.06;100.00
50867;BME280;36839;51.946;21.002;2022-11-11T11:06:49;101383.31;;;10.06;100.00
50867;BME280;36839;51.946;21.002;2022-11-11T11:09:28;101375.98;;;10.11;100.00
50867;BME280;36839;51.946;21.002;2022-11-11T11:11:58;101392.59;;;10.14;100.00
50867;BME280;36839;51.946;21.002;2022-11-11T11:14:28;101391.77;;;10.13;100.00
50867;BME280;36839;51.946;21.002;2022-11-11T11:16:56;101391.77;;;10.13;100.00
50867;BME280;36839;51.946;21.002;2022-11-11T11:19:25;101370.58;;;10.25;100.00
50867;BME280;36839;51.946;21.002;2022-11-11T11:21:59;101370.38;;;10.29;100.00
50867;BME280;36839;51.946;21.002;2022-11-11T11:24:32;101365.75;;;10.33;100.00
50867;BME280;36839;51.946;21.002;2022-11-11T11:27:05;101365.75;;;10.33;100.00
50867;BME280;36839;51.946;21.002;2022-11-11T11:29:40;101360.04;;;10.48;100.00
50867;BME280;36839;51.946;21.002;2022-11-11T11:32:22;101345.44;;;10.50;100.00
50867;BME280;36839;51.946;21.002;2022-11-11T11:34:53;101345.44;;;10.50;100.00
50867;BME280;36839;51.946;21.002;2022-11-11T11:37:22;101344.97;;;10.42;100.00
50867;BME280;36839;51.946;21.002;2022-11-11T11:39:58;101347.98;;;10.40;100.00
50867;BME280;36839;51.946;21.002;2022-11-11T11:42:28;101350.69;;;10.38;100.00
50867;BME280;36839;51.946;21.002;2022-11-11T11:45:42;101350.69;;;10.38;100.00
50867;BME280;36839;51.946;21.002;2022-11-11T11:56:03;101341.91;;;10.41;100.00
50867;BME280;36839;51.946;21.002;2022-11-11T11:58:32;101340.83;;;10.42;100.00
50867;BME280;36839;51.946;21.002;2022-11-11T12:01:15;101340.83;;;10.42;100.00
50867;BME280;36839;51.946;21.002;2022-11-11T12:06:58;101341.25;;;10.48;100.00
50867;BME280;36839;51.946;21.002;2022-11-11T12:09:29;101337.89;;;10.46;100.00
50867;BME280;36839;51.946;21.002;2022-11-11T12:15:03;101337.35;;;10.46;100.00
50867;BME280;36839;51.946;21.002;2022-11-11T12:23:03;101328.03;;;10.50;100.00
50867;BME280;36839;51.946;21.002;2022-11-11T12:25:40;101322.88;;;10.53;100.00
50867;BME280;36839;51.946;21.002;2022-11-11T12:34:04;101328.70;;;10.54;100.00
50867;BME280;36839;51.946;21.002;2022-11-11T12:41:58;101343.10;;;10.56;100.00
50867;BME280;36839;51.946;21.002;2022-11-11T12:44:32;101339.84;;;10.59;100.00
50867;BME280;36839;51.946;21.002;2022-11-11T13:00:49;101351.73;;;10.72;100.00
50867;BME280;36839;51.946;21.002;2022-11-11T13:03:31;101340.14;;;10.61;100.00
50867;BME280;36839;51.946;21.002;2022-11-11T13:06:10;101337.63;;;10.59;100.00
50867;BME280;36839;51.946;21.002;2022-11-11T13:08:43;101337.63;;;10.59;100.00
50867;BME280;36839;51.946;21.002;2022-11-11T13:11:34;101346.66;;;10.54;100.00
50867;BME280;36839;51.946;21.002;2022-11-11T13:17:13;101351.09;;;10.55;100.00
50867;BME280;36839;51.946;21.002;2022-11-11T13:22:24;101340.12;;;10.46;100.00
50867;BME280;36839;51.946;21.002;2022-11-11T13:24:51;101340.12;;;10.46;100.00
50867;BME280;36839;51.946;21.002;2022-11-11T13:27:44;101324.87;;;10.44;100.00
50867;BME280;36839;51.946;21.002;2022-11-11T13:30:23;101329.19;;;10.40;100.00
50867;BME280;36839;51.946;21.002;2022-11-11T13:33:23;101327.52;;;10.39;100.00
50867;BME280;36839;51.946;21.002;2022-11-11T13:35:58;101327.76;;;10.37;100.00
50867;BME280;36839;51.946;21.002;2022-11-11T13:38:37;101323.02;;;10.35;100.00
50867;BME280;36839;51.946;21.002;2022-11-11T13:41:10;101313.66;;;10.36;100.00
50867;BME280;36839;51.946;21.002;2022-11-11T13:43:45;101313.66;;;10.36;100.00
50867;BME280;36839;51.946;21.002;2022-11-11T13:49:07;101311.60;;;10.32;100.00
50867;BME280;36839;51.946;21.002;2022-11-11T13:51:41;101311.60;;;10.32;100.00
50867;BME280;36839;51.946;21.002;2022-11-11T13:54:27;101311.26;;;10.28;100.00
50867;BME280;36839;51.946;21.002;2022-11-11T13:56:52;101316.73;;;10.25;100.00
50867;BME280;36839;51.946;21.002;2022-11-11T13:59:28;101317.95;;;10.20;100.00
50867;BME280;36839;51.946;21.002;2022-11-11T14:02:17;101317.95;;;10.20;100.00
50867;BME280;36839;51.946;21.002;2022-11-11T14:12:52;101329.89;;;10.12;100.00
50867;BME280;36839;51.946;21.002;2022-11-11T14:15:44;101327.03;;;10.07;100.00
50867;BME280;36839;51.946;21.002;2022-11-11T14:20:52;101319.70;;;10.00;100.00
50867;BME280;36839;51.946;21.002;2022-11-11T14:28:40;101323.00;;;10.00;100.00
50867;BME280;36839;51.946;21.002;2022-11-11T14:33:52;101313.83;;;9.97;100.00
50867;BME280;36839;51.946;21.002;2022-11-11T14:36:45;101320.73;;;9.97;100.00
50867;BME280;36839;51.946;21.002;2022-11-11T14:39:29;101320.73;;;9.97;100.00